Archival Weather

Granbury Rgnl

Granbury, Texas (KGDJ)

Report from: Monday, January 29, 2024 1:35 AM UTC
Current time: Tuesday, June 18, 2024 1:32 PM UTC

Current weather – Weather history – Daily summaries
Weather forecast

Temperature8.2°C (46.8°F)
Wind chill7.5°C (45.6°F)
Dew point2.7°C (36.9°F)
Winds 3 kts (1.5 m/s, 3.5 mph) South-Southeast (150°)
Visibility10 mi. (16.1 km)
Clouds Sky clear
Altimeter30.36 in.Hg (1028 mB)
Relative humidity68 %
Density altitude-1,208 ft. (-368 m)
Remarks Fully automated report
Automated weather observing station with precipitation discriminator
Flight conditions Visual Meteorological Conditions
Raw dataKGDJ 290135Z AUTO 15003KT 10SM CLR 08/03 A3036 RMK AO2 T00820027
An error has occurred. This application may no longer respond until reloaded. Reload 🗙